createdAt,value
2022-09-23T00:01:46.988Z,73.14
2022-09-23T00:03:49.250Z,73.31
2022-09-23T00:06:13.593Z,72.82
2022-09-23T00:08:15.062Z,72.75
2022-09-23T00:14:55.388Z,72.94
2022-09-23T00:16:56.887Z,75.55
2022-09-23T00:18:58.657Z,74.89
2022-09-23T00:21:09.152Z,74.22
2022-09-23T00:23:10.610Z,73.50
2022-09-23T00:25:12.462Z,72.73
2022-09-23T00:27:14.042Z,73.06
2022-09-23T00:29:16.048Z,72.33
2022-09-23T00:31:23.458Z,73.38
2022-09-23T00:33:24.921Z,73.27
2022-09-23T00:35:26.371Z,73.28
2022-09-23T00:37:28.680Z,72.66
2022-09-23T00:39:30.239Z,72.54
2022-09-23T00:41:32.423Z,73.09
2022-09-23T00:43:41.253Z,72.73
2022-09-23T00:45:45.616Z,71.54
2022-09-23T00:47:53.257Z,71.81
2022-09-23T00:50:06.141Z,72.37
2022-09-23T00:52:13.468Z,72.70
2022-09-23T00:54:14.957Z,72.23
2022-09-23T00:56:16.731Z,72.56
2022-09-23T00:58:25.000Z,71.99
2022-09-23T01:00:26.686Z,72.44
2022-09-23T01:02:28.399Z,72.70
2022-09-23T01:04:30.890Z,73.70
2022-09-23T01:06:32.919Z,73.59
2022-09-23T01:08:34.625Z,74.92
2022-09-23T01:11:01.116Z,75.56
2022-09-23T01:13:16.168Z,74.74
2022-09-23T01:15:36.028Z,73.79
2022-09-23T01:17:41.701Z,74.45
2022-09-23T01:20:03.310Z,76.18
2022-09-23T01:22:31.582Z,74.42
2022-09-23T01:25:02.123Z,73.77
2022-09-23T01:27:30.957Z,73.61
2022-09-23T01:29:50.967Z,74.40
2022-09-23T01:32:17.211Z,74.23
2022-09-23T01:34:34.469Z,75.15
2022-09-23T01:37:11.585Z,75.53
2022-09-23T01:39:37.635Z,75.69
2022-09-23T01:41:53.858Z,77.97
2022-09-23T01:44:34.931Z,76.41
2022-09-23T01:46:51.661Z,75.02
2022-09-23T01:49:02.249Z,74.75
2022-09-23T01:51:09.315Z,75.43
2022-09-23T01:53:21.346Z,75.42
2022-09-23T01:55:30.903Z,76.06
2022-09-23T01:57:46.891Z,75.80
2022-09-23T01:59:53.562Z,76.08
2022-09-23T02:02:07.470Z,76.35
2022-09-23T02:04:18.834Z,76.19
2022-09-23T02:06:26.484Z,80.08
2022-09-23T02:08:34.627Z,81.47
2022-09-23T02:10:53.191Z,78.68
2022-09-23T02:13:00.028Z,78.66
2022-09-23T02:15:07.025Z,79.73
2022-09-23T02:17:12.978Z,80.22
2022-09-23T02:19:24.237Z,79.48
2022-09-23T02:21:33.877Z,77.45
2022-09-23T02:23:42.461Z,79.89
2022-09-23T02:25:49.027Z,80.78
2022-09-23T02:28:14.876Z,79.18
2022-09-23T02:30:22.004Z,78.41
2022-09-23T02:32:44.747Z,78.98
2022-09-23T02:34:49.167Z,78.13
2022-09-23T02:37:06.441Z,78.75
2022-09-23T02:39:12.700Z,78.67
2022-09-23T02:41:32.623Z,77.84
2022-09-23T02:43:51.551Z,78.28
2022-09-23T02:45:53.048Z,78.68
2022-09-23T02:48:07.637Z,78.77
2022-09-23T02:50:09.596Z,79.36
2022-09-23T02:52:13.652Z,79.40
2022-09-23T02:54:19.583Z,79.36
2022-09-23T02:56:21.916Z,80.09
2022-09-23T02:58:23.460Z,77.75
2022-09-23T03:00:29.677Z,77.19
2022-09-23T03:02:49.237Z,78.33
2022-09-23T03:05:09.791Z,79.29
2022-09-23T03:07:24.263Z,80.98
2022-09-23T03:09:40.166Z,80.91
2022-09-23T03:11:50.459Z,81.50
2022-09-23T03:14:06.680Z,83.31
2022-09-23T03:16:17.419Z,83.72
2022-09-23T03:18:21.623Z,83.41
2022-09-23T03:20:50.543Z,82.96
2022-09-23T03:22:57.733Z,82.96
2022-09-23T03:25:07.113Z,83.86
2022-09-23T03:27:19.173Z,84.69
2022-09-23T03:29:23.377Z,84.82
2022-09-23T03:31:25.360Z,84.58
2022-09-23T03:33:28.761Z,82.46
2022-09-23T03:35:33.896Z,79.76
2022-09-23T03:37:51.099Z,79.69
2022-09-23T03:39:57.227Z,80.92
2022-09-23T03:42:02.790Z,81.29
2022-09-23T03:44:07.097Z,82.98
2022-09-23T03:46:08.739Z,82.42
2022-09-23T03:48:10.275Z,81.41
2022-09-23T03:50:17.305Z,80.10
2022-09-23T03:52:21.336Z,79.29
2022-09-23T03:54:22.809Z,78.27
2022-09-23T03:56:24.235Z,77.34
2022-09-23T03:58:25.674Z,77.27
2022-09-23T04:00:27.721Z,78.61
2022-09-23T04:02:29.283Z,80.79
2022-09-23T04:04:32.407Z,81.40
2022-09-23T04:06:34.062Z,80.91
2022-09-23T04:08:35.543Z,79.03
2022-09-23T04:10:41.360Z,78.02
2022-09-23T04:12:42.838Z,78.10
2022-09-23T04:14:44.997Z,78.41
2022-09-23T04:16:47.410Z,77.29
2022-09-23T04:18:49.044Z,76.18
2022-09-23T04:20:50.504Z,75.72
2022-09-23T04:22:51.949Z,75.67
2022-09-23T04:24:53.400Z,75.25
2022-09-23T04:26:56.638Z,74.93
2022-09-23T04:28:58.358Z,75.96
2022-09-23T04:31:03.601Z,76.47
2022-09-23T04:33:05.103Z,77.61
2022-09-23T04:35:07.357Z,79.07
2022-09-23T04:37:09.029Z,78.56
2022-09-23T04:39:11.447Z,78.57
2022-09-23T04:41:13.489Z,78.41
2022-09-23T04:43:16.280Z,78.70
2022-09-23T04:45:17.727Z,79.47
2022-09-23T04:47:19.337Z,79.02
2022-09-23T04:49:20.980Z,78.23
2022-09-23T04:51:23.908Z,76.76
2022-09-23T04:53:25.472Z,75.99
2022-09-23T04:55:26.972Z,77.29
2022-09-23T04:57:29.796Z,77.15
2022-09-23T04:59:31.303Z,77.24
2022-09-23T05:01:34.648Z,77.21
2022-09-23T05:03:36.549Z,77.91
2022-09-23T05:05:38.078Z,78.38
2022-09-23T05:07:40.393Z,78.58
2022-09-23T05:09:41.821Z,78.12
2022-09-23T05:11:43.918Z,76.93
2022-09-23T05:13:48.428Z,76.59
2022-09-23T05:15:49.943Z,77.24
2022-09-23T05:17:51.419Z,77.83
2022-09-23T05:19:52.865Z,77.11
2022-09-23T05:21:54.288Z,77.66
2022-09-23T05:23:59.039Z,77.59
2022-09-23T05:26:03.743Z,78.01
2022-09-23T05:28:05.183Z,78.42
2022-09-23T05:30:07.405Z,78.54
2022-09-23T05:32:09.799Z,78.21
2022-09-23T05:34:11.352Z,78.89
2022-09-23T05:36:13.527Z,78.35
2022-09-23T05:38:16.820Z,79.33
2022-09-23T05:40:18.274Z,79.86
2022-09-23T05:42:21.156Z,80.74
2022-09-23T05:44:22.580Z,81.26
2022-09-23T05:46:27.881Z,81.92
2022-09-23T05:48:34.507Z,81.56
2022-09-23T05:50:35.924Z,80.23
2022-09-23T05:52:37.420Z,80.03
2022-09-23T05:54:39.235Z,80.63
2022-09-23T05:56:40.705Z,81.53
2022-09-23T05:58:42.400Z,81.38
2022-09-23T06:00:44.118Z,80.74
2022-09-23T06:02:48.759Z,80.03
2022-09-23T06:04:50.230Z,79.47
2022-09-23T06:06:51.666Z,79.87
2022-09-23T06:08:53.149Z,79.43
2022-09-23T06:10:54.869Z,78.68
2022-09-23T06:12:56.782Z,78.15
2022-09-23T06:14:58.473Z,77.99
2022-09-23T06:17:00.125Z,79.00
2022-09-23T06:19:06.178Z,79.29
2022-09-23T06:21:10.056Z,79.17
2022-09-23T06:23:11.685Z,78.12
2022-09-23T06:25:13.268Z,78.08
2022-09-23T06:27:14.779Z,78.17
2022-09-23T06:29:16.315Z,76.11
2022-09-23T06:31:18.102Z,75.89
2022-09-23T06:33:31.365Z,76.80
2022-09-23T06:35:36.956Z,78.05
2022-09-23T06:37:38.479Z,78.63
2022-09-23T06:39:39.990Z,79.13
2022-09-23T06:41:41.516Z,78.70
2022-09-23T06:43:43.009Z,78.00
2022-09-23T06:45:44.700Z,78.00
2022-09-23T06:47:47.103Z,78.80
2022-09-23T06:49:48.536Z,76.58
2022-09-23T06:51:50.413Z,74.71
2022-09-23T06:53:52.477Z,78.19
2022-09-23T06:56:07.531Z,79.67
2022-09-23T06:58:09.833Z,82.03
2022-09-23T07:00:13.123Z,78.97
2022-09-23T07:02:14.734Z,79.50
2022-09-23T07:04:16.298Z,81.15
2022-09-23T07:06:17.766Z,82.41
2022-09-23T07:08:19.223Z,83.25
2022-09-23T07:10:20.701Z,83.54
2022-09-23T07:12:22.117Z,83.92
2022-09-23T07:14:24.463Z,83.82
2022-09-23T07:16:26.110Z,82.96
2022-09-23T07:18:36.477Z,83.68
2022-09-23T07:20:38.511Z,81.82
2022-09-23T07:22:40.013Z,82.33
2022-09-23T07:24:41.485Z,81.87
2022-09-23T07:26:45.678Z,81.91
2022-09-23T07:28:47.325Z,82.62
2022-09-23T07:30:58.171Z,83.11
2022-09-23T07:33:00.268Z,84.08
2022-09-23T07:35:01.765Z,82.78
2022-09-23T07:37:03.253Z,83.24
2022-09-23T07:39:05.171Z,83.15
2022-09-23T07:41:09.291Z,83.73
2022-09-23T07:43:10.799Z,82.57
2022-09-23T07:45:12.991Z,83.06
2022-09-23T07:47:14.539Z,82.12
2022-09-23T07:49:16.177Z,82.34
2022-09-23T07:51:20.823Z,82.38
2022-09-23T07:53:23.380Z,81.73
2022-09-23T07:55:25.841Z,81.70
2022-09-23T07:57:27.335Z,81.38
2022-09-23T07:59:28.801Z,80.97
2022-09-23T08:01:42.926Z,80.82
2022-09-23T08:03:45.474Z,80.26
2022-09-23T08:05:47.022Z,80.45
2022-09-23T08:07:49.454Z,79.93
2022-09-23T08:09:51.007Z,79.36
2022-09-23T08:11:52.986Z,78.92
2022-09-23T08:13:54.760Z,78.72
2022-09-23T08:15:56.538Z,78.72
2022-09-23T08:17:59.834Z,78.52
2022-09-23T08:20:01.594Z,78.48
2022-09-23T08:22:03.038Z,77.52
2022-09-23T08:24:08.457Z,76.58
2022-09-23T08:26:18.111Z,75.84
2022-09-23T08:28:21.994Z,73.63
2022-09-23T08:30:23.469Z,72.95
2022-09-23T08:32:24.893Z,72.19
2022-09-23T08:34:27.683Z,72.44
2022-09-23T08:36:29.193Z,73.14
2022-09-23T08:38:30.683Z,72.09
2022-09-23T08:40:42.114Z,70.48
2022-09-23T08:42:45.547Z,70.52
2022-09-23T08:44:48.975Z,69.14
2022-09-23T08:47:17.016Z,68.44
2022-09-23T08:49:30.913Z,68.48
2022-09-23T08:51:48.699Z,68.32
2022-09-23T08:53:50.285Z,67.53
2022-09-23T08:55:54.413Z,67.56
2022-09-23T08:58:26.177Z,67.13
2022-09-23T09:00:43.662Z,66.61
2022-09-23T09:02:45.691Z,67.49
2022-09-23T09:05:12.865Z,65.74
2022-09-23T09:07:37.735Z,65.38
2022-09-23T09:09:55.061Z,63.29
2022-09-23T09:12:07.212Z,63.43
2022-09-23T09:14:46.332Z,63.21
2022-09-23T09:17:00.008Z,62.89
2022-09-23T09:19:03.600Z,63.82
2022-09-23T09:21:11.399Z,63.84
2022-09-23T09:23:34.924Z,61.91
2022-09-23T09:25:44.769Z,62.02
2022-09-23T09:27:47.637Z,62.09
2022-09-23T09:29:52.311Z,61.74
2022-09-23T09:31:54.083Z,61.44
2022-09-23T09:34:15.790Z,61.81
2022-09-23T09:36:39.882Z,62.65
2022-09-23T09:38:41.349Z,61.76
2022-09-23T09:40:47.466Z,61.78
2022-09-23T09:42:50.391Z,61.59
2022-09-23T09:44:58.467Z,61.39
2022-09-23T09:47:28.647Z,61.03
2022-09-23T09:50:01.910Z,61.33
2022-09-23T09:52:26.327Z,61.29
2022-09-23T09:54:28.741Z,60.92
2022-09-23T09:56:35.776Z,60.76
2022-09-23T09:58:41.068Z,60.57
2022-09-23T10:00:46.130Z,60.72
2022-09-23T10:02:53.121Z,62.32
2022-09-23T10:05:07.404Z,62.94
2022-09-23T10:07:26.117Z,61.84
2022-09-23T10:09:34.540Z,61.31
2022-09-23T10:11:36.744Z,59.24
2022-09-23T10:13:38.246Z,60.33
2022-09-23T10:15:45.017Z,61.99
2022-09-23T10:17:51.294Z,61.94
2022-09-23T10:20:15.042Z,62.04
2022-09-23T10:22:24.332Z,61.41
2022-09-23T10:24:30.387Z,60.40
2022-09-23T10:26:44.652Z,58.88
2022-09-23T10:28:50.486Z,60.29
2022-09-23T10:31:06.921Z,58.71
2022-09-23T10:33:26.972Z,58.54
2022-09-23T10:35:29.676Z,59.21
2022-09-23T10:37:33.084Z,58.74
2022-09-23T10:39:53.130Z,58.54
2022-09-23T10:42:22.156Z,59.15
2022-09-23T10:45:30.088Z,59.03
2022-09-23T10:47:42.032Z,59.68
2022-09-23T10:49:58.520Z,59.88
2022-09-23T10:52:18.270Z,59.38
2022-09-23T10:54:37.248Z,59.87
2022-09-23T10:57:36.021Z,59.43
2022-09-23T10:59:51.726Z,58.56
2022-09-23T11:02:02.074Z,59.34
2022-09-23T11:04:34.385Z,58.81
2022-09-23T11:06:38.734Z,58.94
2022-09-23T11:08:51.393Z,58.29
2022-09-23T11:11:12.895Z,58.67
2022-09-23T11:13:24.528Z,58.80
2022-09-23T11:15:44.466Z,58.48
2022-09-23T11:17:54.902Z,58.04
2022-09-23T11:20:05.343Z,55.43
2022-09-23T11:22:48.636Z,57.14
2022-09-23T11:25:24.730Z,56.59
2022-09-23T11:27:52.078Z,55.92
2022-09-23T11:30:07.104Z,55.32
2022-09-23T11:32:35.191Z,54.61
2022-09-23T11:34:55.045Z,54.60
2022-09-23T11:37:09.144Z,54.99
2022-09-23T11:39:36.551Z,55.36
2022-09-23T11:41:39.817Z,55.74
2022-09-23T11:43:44.525Z,55.56
2022-09-23T11:46:02.484Z,55.23
2022-09-23T11:48:26.837Z,55.99
2022-09-23T11:50:49.008Z,55.75
2022-09-23T11:53:02.052Z,54.84
2022-09-23T11:55:20.937Z,55.95
2022-09-23T11:57:49.872Z,57.00
2022-09-23T11:59:59.931Z,55.25
2022-09-23T12:02:19.233Z,55.55
2022-09-23T12:04:55.007Z,56.83
2022-09-23T12:07:01.449Z,57.19
2022-09-23T12:09:12.526Z,57.33
2022-09-23T12:11:39.233Z,56.95
2022-09-23T12:13:55.101Z,57.69
2022-09-23T12:16:05.362Z,56.08
2022-09-23T12:18:25.529Z,56.84
2022-09-23T12:20:48.312Z,56.74
2022-09-23T12:23:14.057Z,58.29
2022-09-23T12:25:36.939Z,58.37
2022-09-23T12:27:46.611Z,58.01
2022-09-23T12:29:51.868Z,57.55
2022-09-23T12:31:53.510Z,57.73
2022-09-23T12:33:55.294Z,57.42
2022-09-23T12:36:25.196Z,57.66
2022-09-23T12:38:35.269Z,57.82
2022-09-23T12:40:43.870Z,57.34
2022-09-23T12:42:47.028Z,57.02
2022-09-23T12:44:49.120Z,56.67
2022-09-23T12:47:13.369Z,55.59
2022-09-23T12:49:28.848Z,55.82
2022-09-23T12:51:34.980Z,56.05
2022-09-23T12:53:36.352Z,55.31
2022-09-23T12:55:41.518Z,56.12
2022-09-23T12:57:43.045Z,56.09
2022-09-23T12:59:59.827Z,55.96
2022-09-23T13:02:24.693Z,56.48
2022-09-23T13:05:01.993Z,55.76
2022-09-23T13:07:08.694Z,56.18
2022-09-23T13:09:16.834Z,56.73
2022-09-23T13:11:22.807Z,55.51
2022-09-23T13:13:40.866Z,55.91
2022-09-23T13:15:42.346Z,56.61
2022-09-23T13:17:44.332Z,56.65
2022-09-23T13:19:46.301Z,56.46
2022-09-23T13:21:49.464Z,55.69
2022-09-23T13:24:12.528Z,56.85
2022-09-23T13:26:15.513Z,57.62
2022-09-23T13:29:04.608Z,56.91
2022-09-23T13:31:13.711Z,56.43
2022-09-23T13:33:46.575Z,57.19
2022-09-23T13:35:51.004Z,57.13
2022-09-23T13:37:53.473Z,57.40
2022-09-23T13:40:07.960Z,56.85
2022-09-23T13:42:25.609Z,57.09
2022-09-23T13:44:28.033Z,56.60
2022-09-23T13:46:38.228Z,57.79
2022-09-23T13:48:43.449Z,58.58
2022-09-23T13:50:53.400Z,58.85
2022-09-23T13:52:57.938Z,58.90
2022-09-23T13:54:59.478Z,59.11
2022-09-23T13:57:00.997Z,58.56
2022-09-23T13:59:24.666Z,57.35
2022-09-23T14:01:33.556Z,57.25
2022-09-23T14:03:37.378Z,57.61
2022-09-23T14:05:38.928Z,58.09
2022-09-23T14:07:40.436Z,58.12
2022-09-23T14:09:44.665Z,58.71
2022-09-23T14:11:46.363Z,59.11
2022-09-23T14:13:54.929Z,59.87
2022-09-23T14:15:58.381Z,59.93
2022-09-23T14:18:06.253Z,59.61
2022-09-23T14:20:14.682Z,59.44
2022-09-23T14:22:25.254Z,60.01
2022-09-23T14:24:29.738Z,60.04
2022-09-23T14:26:31.392Z,59.75
2022-09-23T14:28:33.154Z,59.84
2022-09-23T14:30:34.982Z,60.05
2022-09-23T14:32:38.980Z,60.17
2022-09-23T14:34:51.048Z,60.21
2022-09-23T14:37:11.195Z,61.16
2022-09-23T14:39:12.728Z,60.41
2022-09-23T14:41:23.731Z,60.72
2022-09-23T14:43:28.136Z,60.45
2022-09-23T14:45:40.547Z,60.58
2022-09-23T14:48:00.848Z,61.05
2022-09-23T14:50:21.267Z,61.38
2022-09-23T14:52:22.729Z,60.46
2022-09-23T14:54:39.470Z,60.83
2022-09-23T14:56:42.244Z,60.94
2022-09-23T14:58:58.121Z,60.30
2022-09-23T15:01:02.309Z,60.76
2022-09-23T15:03:14.722Z,60.93
2022-09-23T15:05:21.263Z,60.96
2022-09-23T15:07:23.800Z,61.35
2022-09-23T15:09:41.534Z,61.30
2022-09-23T15:11:43.059Z,62.18
2022-09-23T15:13:49.385Z,62.53
2022-09-23T15:15:55.117Z,62.63
2022-09-23T15:18:04.333Z,63.84
2022-09-23T15:20:16.147Z,64.03
2022-09-23T15:22:18.312Z,64.20
2022-09-23T15:24:38.530Z,64.33
2022-09-23T15:26:49.295Z,64.47
2022-09-23T15:28:53.693Z,64.70
2022-09-23T15:30:55.192Z,65.20
2022-09-23T15:32:56.638Z,65.57
2022-09-23T15:34:58.071Z,66.43
2022-09-23T15:36:59.539Z,66.77
2022-09-23T15:39:02.872Z,66.83
2022-09-23T15:41:04.409Z,66.99
2022-09-23T15:43:20.918Z,67.92
2022-09-23T15:45:45.201Z,67.96
2022-09-23T15:47:48.192Z,68.42
2022-09-23T15:49:49.742Z,67.88
2022-09-23T15:51:52.085Z,68.18
2022-09-23T15:53:55.184Z,68.79
2022-09-23T15:55:58.555Z,69.40
2022-09-23T15:58:00.372Z,69.32
2022-09-23T16:00:01.847Z,69.48
2022-09-23T16:02:07.841Z,69.64
2022-09-23T16:04:10.169Z,70.16
2022-09-23T16:06:13.459Z,70.32
2022-09-23T16:08:15.869Z,70.68
2022-09-23T16:10:17.500Z,70.69
2022-09-23T16:12:18.943Z,70.86
2022-09-23T16:14:20.462Z,70.78
2022-09-23T16:16:22.097Z,70.72
2022-09-23T16:18:23.606Z,70.85
2022-09-23T16:20:29.605Z,70.94
2022-09-23T16:22:31.152Z,70.99
2022-09-23T16:24:32.868Z,71.28
2022-09-23T16:26:35.959Z,71.36
2022-09-23T16:28:37.808Z,71.83
2022-09-23T16:30:39.245Z,72.29
2022-09-23T16:32:40.682Z,72.62
2022-09-23T16:34:42.149Z,72.70
2022-09-23T16:36:43.671Z,72.87
2022-09-23T16:38:45.088Z,72.83
2022-09-23T16:40:47.440Z,72.83
2022-09-23T16:42:52.021Z,72.87
2022-09-23T16:44:53.514Z,73.17
2022-09-23T16:46:54.953Z,73.10
2022-09-23T16:48:57.628Z,73.22
2022-09-23T16:51:04.483Z,73.30
2022-09-23T16:53:06.127Z,73.33
2022-09-23T16:55:11.256Z,73.48
2022-09-23T16:57:13.266Z,73.59
2022-09-23T16:59:15.961Z,73.84
2022-09-23T17:01:41.264Z,73.97
2022-09-23T17:03:47.205Z,73.86
2022-09-23T17:05:49.432Z,73.81
2022-09-23T17:07:50.873Z,74.42
2022-09-23T17:09:52.426Z,74.60
2022-09-23T17:12:26.941Z,74.45
2022-09-23T17:14:30.071Z,74.97
2022-09-23T17:16:34.374Z,75.17
2022-09-23T17:18:35.949Z,75.38
2022-09-23T17:20:38.717Z,75.62
2022-09-23T17:22:41.118Z,75.30
2022-09-23T17:24:42.819Z,75.40
2022-09-23T17:26:50.579Z,75.43
2022-09-23T17:28:56.179Z,75.60
2022-09-23T17:31:02.587Z,75.40
2022-09-23T17:33:04.080Z,75.17
2022-09-23T17:35:06.278Z,75.55
2022-09-23T17:37:07.772Z,75.35
2022-09-23T17:39:09.240Z,75.00
2022-09-23T17:41:12.074Z,75.25
2022-09-23T17:43:13.534Z,75.05
2022-09-23T17:45:15.152Z,74.86
2022-09-23T17:47:16.586Z,74.97
2022-09-23T17:49:18.176Z,75.03
2022-09-23T17:51:19.848Z,75.29
2022-09-23T17:53:21.685Z,75.20
2022-09-23T17:55:23.155Z,75.65
2022-09-23T17:57:24.624Z,75.26
2022-09-23T17:59:39.604Z,75.50
2022-09-23T18:01:41.164Z,75.27
2022-09-23T18:03:43.498Z,75.41
2022-09-23T18:05:45.024Z,75.43
2022-09-23T18:07:46.450Z,75.89
2022-09-23T18:09:47.883Z,76.40
2022-09-23T18:11:49.755Z,76.89
2022-09-23T18:13:57.091Z,77.19
2022-09-23T18:16:02.364Z,77.29
2022-09-23T18:18:05.428Z,77.05
2022-09-23T18:20:07.564Z,77.23
2022-09-23T18:22:09.012Z,77.47
2022-09-23T18:24:31.228Z,78.87
2022-09-23T18:26:33.435Z,79.18
2022-09-23T18:28:35.132Z,78.44
2022-09-23T18:30:36.614Z,78.49
2022-09-23T18:32:38.078Z,78.43
2022-09-23T18:34:39.513Z,77.94
2022-09-23T18:36:41.036Z,77.61
2022-09-23T18:38:42.474Z,77.33
2022-09-23T18:40:56.152Z,77.23
2022-09-23T18:42:57.838Z,76.95
2022-09-23T18:44:59.363Z,77.73
2022-09-23T18:47:00.792Z,77.77
2022-09-23T18:49:20.770Z,78.03
2022-09-23T18:51:28.456Z,77.57
2022-09-23T18:53:32.280Z,77.35
2022-09-23T18:55:35.461Z,76.86
2022-09-23T18:57:37.360Z,77.25
2022-09-23T18:59:38.869Z,77.26
2022-09-23T19:01:40.731Z,78.20
2022-09-23T19:03:42.959Z,78.00
2022-09-23T19:05:44.427Z,78.69
2022-09-23T19:07:45.878Z,79.21
2022-09-23T19:09:47.379Z,80.21
2022-09-23T19:11:52.643Z,80.41
2022-09-23T19:13:55.405Z,81.42
2022-09-23T19:16:02.282Z,81.52
2022-09-23T19:18:03.810Z,80.93
2022-09-23T19:20:05.881Z,80.16
2022-09-23T19:22:07.351Z,79.65
2022-09-23T19:24:14.344Z,78.80
2022-09-23T19:26:18.682Z,79.24
2022-09-23T19:28:20.729Z,80.02
2022-09-23T19:30:22.150Z,80.65
2022-09-23T19:32:25.967Z,79.96
2022-09-23T19:34:29.307Z,79.61
2022-09-23T19:36:35.287Z,79.41
2022-09-23T19:38:38.316Z,79.49
2022-09-23T19:40:39.831Z,79.11
2022-09-23T19:42:42.935Z,79.42
2022-09-23T19:44:44.376Z,80.03
2022-09-23T19:46:53.551Z,80.03
2022-09-23T19:48:58.530Z,79.49
2022-09-23T19:51:01.043Z,79.19
2022-09-23T19:53:05.092Z,79.82
2022-09-23T19:55:07.252Z,79.22
2022-09-23T19:57:09.008Z,78.75
2022-09-23T19:59:11.787Z,78.51
2022-09-23T20:01:16.307Z,78.47
2022-09-23T20:03:18.268Z,78.37
2022-09-23T20:05:20.517Z,78.58
2022-09-23T20:07:21.987Z,78.21
2022-09-23T20:09:23.534Z,78.36
2022-09-23T20:11:28.660Z,78.42
2022-09-23T20:13:31.431Z,78.34
2022-09-23T20:15:32.916Z,78.43
2022-09-23T20:17:34.572Z,78.23
2022-09-23T20:19:36.053Z,78.04
2022-09-23T20:21:37.660Z,78.54
2022-09-23T20:23:39.117Z,78.33
2022-09-23T20:25:59.099Z,79.43
2022-09-23T20:28:00.582Z,78.65
2022-09-23T20:30:02.771Z,79.10
2022-09-23T20:32:04.504Z,78.90
2022-09-23T20:34:07.027Z,78.84
2022-09-23T20:36:10.442Z,79.29
2022-09-23T20:38:11.869Z,79.45
2022-09-23T20:40:13.370Z,79.79
2022-09-23T20:42:16.336Z,80.54
2022-09-23T20:44:17.840Z,82.32
2022-09-23T20:46:19.319Z,85.44
2022-09-23T20:48:22.419Z,86.84
2022-09-23T20:50:23.892Z,87.74
2022-09-23T20:52:25.365Z,88.29
2022-09-23T20:54:26.827Z,88.16
2022-09-23T20:56:29.164Z,88.16
2022-09-23T20:58:36.119Z,88.48
2022-09-23T21:00:37.622Z,88.88
2022-09-23T21:02:39.084Z,88.53
2022-09-23T21:04:40.570Z,88.40
2022-09-23T21:06:41.982Z,88.12
2022-09-23T21:08:44.607Z,83.62
2022-09-23T21:10:53.997Z,80.79
2022-09-23T21:12:55.413Z,80.12
2022-09-23T21:14:56.849Z,80.42
2022-09-23T21:16:59.412Z,80.60
2022-09-23T21:19:02.891Z,81.11
2022-09-23T21:21:06.200Z,82.98
2022-09-23T21:23:08.008Z,82.54
2022-09-23T21:25:27.474Z,82.00
2022-09-23T21:27:30.557Z,82.14
2022-09-23T21:29:32.186Z,79.43
2022-09-23T21:31:36.103Z,78.32
2022-09-23T21:33:37.831Z,77.26
2022-09-23T21:35:40.328Z,76.74
2022-09-23T21:37:41.733Z,77.01
2022-09-23T21:40:03.124Z,76.75
2022-09-23T21:42:06.021Z,76.41
2022-09-23T21:44:08.394Z,77.06
2022-09-23T21:46:12.958Z,77.90
2022-09-23T21:48:14.444Z,77.91
2022-09-23T21:50:15.977Z,78.81
2022-09-23T21:52:17.406Z,79.62
2022-09-23T21:54:19.063Z,79.25
2022-09-23T21:56:23.560Z,80.12
2022-09-23T21:58:26.615Z,80.31
2022-09-23T22:00:28.092Z,81.00
2022-09-23T22:02:29.609Z,81.62
2022-09-23T22:04:32.182Z,81.86
2022-09-23T22:06:36.280Z,81.37
2022-09-23T22:08:40.192Z,80.55
2022-09-23T22:10:41.635Z,80.57
2022-09-23T22:12:43.078Z,80.49
2022-09-23T22:14:47.149Z,80.35
2022-09-23T22:16:48.700Z,79.63
2022-09-23T22:18:57.185Z,79.74
2022-09-23T22:20:59.183Z,80.63
2022-09-23T22:23:00.641Z,80.90
2022-09-23T22:25:02.057Z,82.81
2022-09-23T22:27:03.599Z,84.47
2022-09-23T22:29:26.045Z,84.96
2022-09-23T22:31:45.804Z,85.75
2022-09-23T22:33:50.109Z,85.52
2022-09-23T22:35:52.098Z,87.30
2022-09-23T22:37:54.670Z,88.17
2022-09-23T22:39:56.201Z,88.70
2022-09-23T22:41:58.844Z,89.22
2022-09-23T22:44:00.532Z,89.97
2022-09-23T22:46:02.421Z,90.16
2022-09-23T22:48:04.704Z,90.36
2022-09-23T22:50:08.085Z,90.92
2022-09-23T22:52:11.302Z,90.94
2022-09-23T22:54:12.880Z,90.51
2022-09-23T22:56:15.231Z,90.05
2022-09-23T22:58:31.669Z,89.91
2022-09-23T23:00:33.490Z,89.40
2022-09-23T23:02:35.083Z,88.17
2022-09-23T23:04:37.172Z,87.44
2022-09-23T23:06:39.342Z,86.99
2022-09-23T23:08:40.767Z,86.46
2022-09-23T23:10:42.191Z,85.74
2022-09-23T23:12:44.006Z,85.50
2022-09-23T23:14:46.996Z,85.50
2022-09-23T23:16:48.519Z,85.93
2022-09-23T23:18:50.024Z,85.90
2022-09-23T23:20:51.559Z,85.54
2022-09-23T23:22:53.009Z,85.11
2022-09-23T23:24:54.732Z,85.11
2022-09-23T23:26:56.194Z,84.57
2022-09-23T23:28:58.519Z,84.85
2022-09-23T23:31:05.236Z,85.08
2022-09-23T23:33:06.730Z,85.42
2022-09-23T23:35:08.964Z,85.96
2022-09-23T23:37:10.398Z,85.61
2022-09-23T23:39:13.403Z,85.39
2022-09-23T23:41:17.410Z,84.48
2022-09-23T23:43:24.969Z,83.68
2022-09-23T23:45:26.400Z,84.41
2022-09-23T23:47:27.868Z,85.10
2022-09-23T23:49:29.329Z,86.62
2022-09-23T23:51:30.940Z,87.34
2022-09-23T23:53:36.779Z,88.11
2022-09-23T23:55:38.788Z,88.34
2022-09-23T23:57:40.201Z,88.35
2022-09-23T23:59:41.661Z,88.56
